sensor_id;sensor_type;location;lat;lon;timestamp;temperature;humidity
54264;DHT22;40178;53.042;6.406;2022-11-14T00:02:01;5.90;99.90
54264;DHT22;40178;53.042;6.406;2022-11-14T00:04:26;6.00;99.90
54264;DHT22;40178;53.042;6.406;2022-11-14T00:06:52;6.00;99.90
54264;DHT22;40178;53.042;6.406;2022-11-14T00:09:18;6.00;99.90
54264;DHT22;40178;53.042;6.406;2022-11-14T00:11:43;6.00;99.90
54264;DHT22;40178;53.042;6.406;2022-11-14T00:14:10;5.90;99.90
54264;DHT22;40178;53.042;6.406;2022-11-14T00:16:36;6.00;99.90
54264;DHT22;40178;53.042;6.406;2022-11-14T00:19:02;6.00;99.90
54264;DHT22;40178;53.042;6.406;2022-11-14T00:21:27;6.00;99.90
54264;DHT22;40178;53.042;6.406;2022-11-14T00:23:53;6.10;99.90
54264;DHT22;40178;53.042;6.406;2022-11-14T00:26:18;6.00;99.90
54264;DHT22;40178;53.042;6.406;2022-11-14T00:28:44;6.00;99.90
54264;DHT22;40178;53.042;6.406;2022-11-14T00:31:10;6.10;99.90
54264;DHT22;40178;53.042;6.406;2022-11-14T00:33:36;6.20;99.90
54264;DHT22;40178;53.042;6.406;2022-11-14T00:36:03;6.20;99.90
54264;DHT22;40178;53.042;6.406;2022-11-14T00:38:29;6.10;99.90
54264;DHT22;40178;53.042;6.406;2022-11-14T00:40:54;6.20;99.90
54264;DHT22;40178;53.042;6.406;2022-11-14T00:43:20;6.20;99.90
54264;DHT22;40178;53.042;6.406;2022-11-14T00:45:46;6.20;99.90
54264;DHT22;40178;53.042;6.406;2022-11-14T00:48:12;6.20;99.90
54264;DHT22;40178;53.042;6.406;2022-11-14T00:50:38;6.30;99.90
54264;DHT22;40178;53.042;6.406;2022-11-14T00:53:04;6.30;99.90
54264;DHT22;40178;53.042;6.406;2022-11-14T00:55:29;6.30;99.90
54264;DHT22;40178;53.042;6.406;2022-11-14T00:57:55;6.20;99.90
54264;DHT22;40178;53.042;6.406;2022-11-14T01:00:20;6.20;99.90
54264;DHT22;40178;53.042;6.406;2022-11-14T01:02:46;6.20;99.90
54264;DHT22;40178;53.042;6.406;2022-11-14T01:05:12;6.30;99.90
54264;DHT22;40178;53.042;6.406;2022-11-14T01:07:37;6.30;99.90
54264;DHT22;40178;53.042;6.406;2022-11-14T01:10:04;6.20;99.90
54264;DHT22;40178;53.042;6.406;2022-11-14T01:12:29;6.30;99.90
54264;DHT22;40178;53.042;6.406;2022-11-14T01:14:55;6.20;99.90
54264;DHT22;40178;53.042;6.406;2022-11-14T01:17:20;6.30;99.90
54264;DHT22;40178;53.042;6.406;2022-11-14T01:19:46;6.30;99.90
54264;DHT22;40178;53.042;6.406;2022-11-14T01:22:11;6.30;99.90
54264;DHT22;40178;53.042;6.406;2022-11-14T01:24:37;6.30;99.90
54264;DHT22;40178;53.042;6.406;2022-11-14T01:27:02;6.30;99.90
54264;DHT22;40178;53.042;6.406;2022-11-14T01:29:28;6.30;99.90
54264;DHT22;40178;53.042;6.406;2022-11-14T01:31:54;6.40;99.90
54264;DHT22;40178;53.042;6.406;2022-11-14T01:34:20;6.30;99.90
54264;DHT22;40178;53.042;6.406;2022-11-14T01:36:46;6.30;99.90
54264;DHT22;40178;53.042;6.406;2022-11-14T01:39:12;6.20;99.90
54264;DHT22;40178;53.042;6.406;2022-11-14T01:41:37;6.30;99.90
54264;DHT22;40178;53.042;6.406;2022-11-14T01:44:11;6.30;99.90
54264;DHT22;40178;53.042;6.406;2022-11-14T01:46:39;6.60;99.90
54264;DHT22;40178;53.042;6.406;2022-11-14T01:49:16;6.20;99.90
54264;DHT22;40178;53.042;6.406;2022-11-14T01:51:59;6.30;99.90
54264;DHT22;40178;53.042;6.406;2022-11-14T01:54:30;6.20;99.90
54264;DHT22;40178;53.042;6.406;2022-11-14T01:56:59;6.20;99.90
54264;DHT22;40178;53.042;6.406;2022-11-14T01:59:30;6.20;99.90
54264;DHT22;40178;53.042;6.406;2022-11-14T02:02:09;6.30;99.90
54264;DHT22;40178;53.042;6.406;2022-11-14T02:04:42;6.20;99.90
54264;DHT22;40178;53.042;6.406;2022-11-14T02:07:09;6.10;99.90
54264;DHT22;40178;53.042;6.406;2022-11-14T02:09:37;6.10;99.90
54264;DHT22;40178;53.042;6.406;2022-11-14T02:12:06;6.10;99.90
54264;DHT22;40178;53.042;6.406;2022-11-14T02:14:33;6.20;99.90
54264;DHT22;40178;53.042;6.406;2022-11-14T02:17:00;6.10;99.90
54264;DHT22;40178;53.042;6.406;2022-11-14T02:19:51;6.20;99.90
54264;DHT22;40178;53.042;6.406;2022-11-14T02:22:17;6.20;99.90
54264;DHT22;40178;53.042;6.406;2022-11-14T02:24:44;6.20;99.90
54264;DHT22;40178;53.042;6.406;2022-11-14T02:27:10;6.10;99.90
54264;DHT22;40178;53.042;6.406;2022-11-14T02:29:37;6.10;99.90
54264;DHT22;40178;53.042;6.406;2022-11-14T02:32:03;6.10;99.90
54264;DHT22;40178;53.042;6.406;2022-11-14T02:34:29;6.10;99.90
54264;DHT22;40178;53.042;6.406;2022-11-14T02:36:55;6.00;99.90
54264;DHT22;40178;53.042;6.406;2022-11-14T02:39:20;6.10;99.90
54264;DHT22;40178;53.042;6.406;2022-11-14T02:41:46;6.10;99.90
54264;DHT22;40178;53.042;6.406;2022-11-14T02:44:12;6.10;99.90
54264;DHT22;40178;53.042;6.406;2022-11-14T02:46:37;6.00;99.90
54264;DHT22;40178;53.042;6.406;2022-11-14T02:49:03;6.10;99.90
54264;DHT22;40178;53.042;6.406;2022-11-14T02:51:28;6.20;99.90
54264;DHT22;40178;53.042;6.406;2022-11-14T02:53:54;6.10;99.90
54264;DHT22;40178;53.042;6.406;2022-11-14T02:56:19;6.10;99.90
54264;DHT22;40178;53.042;6.406;2022-11-14T02:58:45;6.00;99.90
54264;DHT22;40178;53.042;6.406;2022-11-14T03:01:10;6.10;99.90
54264;DHT22;40178;53.042;6.406;2022-11-14T03:03:36;6.00;99.90
54264;DHT22;40178;53.042;6.406;2022-11-14T03:06:02;6.10;99.90
54264;DHT22;40178;53.042;6.406;2022-11-14T03:08:28;6.00;99.90
54264;DHT22;40178;53.042;6.406;2022-11-14T03:10:54;6.00;99.90
54264;DHT22;40178;53.042;6.406;2022-11-14T03:13:20;6.10;99.90
54264;DHT22;40178;53.042;6.406;2022-11-14T03:15:46;6.00;99.90
54264;DHT22;40178;53.042;6.406;2022-11-14T03:18:11;6.10;99.90
54264;DHT22;40178;53.042;6.406;2022-11-14T03:20:37;6.10;99.90
54264;DHT22;40178;53.042;6.406;2022-11-14T03:23:03;6.00;99.90
54264;DHT22;40178;53.042;6.406;2022-11-14T03:25:29;6.10;99.90
54264;DHT22;40178;53.042;6.406;2022-11-14T03:27:54;6.00;99.90
54264;DHT22;40178;53.042;6.406;2022-11-14T03:30:20;6.10;99.90
54264;DHT22;40178;53.042;6.406;2022-11-14T03:32:45;6.00;99.90
54264;DHT22;40178;53.042;6.406;2022-11-14T03:35:11;6.10;99.90
54264;DHT22;40178;53.042;6.406;2022-11-14T03:37:36;6.10;99.90
54264;DHT22;40178;53.042;6.406;2022-11-14T03:40:02;6.00;99.90
54264;DHT22;40178;53.042;6.406;2022-11-14T03:42:32;6.00;99.90
54264;DHT22;40178;53.042;6.406;2022-11-14T03:44:58;6.00;99.90
54264;DHT22;40178;53.042;6.406;2022-11-14T03:47:24;6.00;99.90
54264;DHT22;40178;53.042;6.406;2022-11-14T03:49:49;6.00;99.90
54264;DHT22;40178;53.042;6.406;2022-11-14T03:52:15;6.00;99.90
54264;DHT22;40178;53.042;6.406;2022-11-14T03:54:40;6.00;99.90
54264;DHT22;40178;53.042;6.406;2022-11-14T03:57:06;6.00;99.90
54264;DHT22;40178;53.042;6.406;2022-11-14T03:59:31;6.10;99.90
54264;DHT22;40178;53.042;6.406;2022-11-14T04:01:57;6.00;99.90
54264;DHT22;40178;53.042;6.406;2022-11-14T04:04:23;6.00;99.90
54264;DHT22;40178;53.042;6.406;2022-11-14T04:06:48;6.00;99.90
54264;DHT22;40178;53.042;6.406;2022-11-14T04:09:14;6.00;99.90
54264;DHT22;40178;53.042;6.406;2022-11-14T04:11:39;5.90;99.90
54264;DHT22;40178;53.042;6.406;2022-11-14T04:14:05;6.00;99.90
54264;DHT22;40178;53.042;6.406;2022-11-14T04:16:30;5.90;99.90
54264;DHT22;40178;53.042;6.406;2022-11-14T04:18:56;5.90;99.90
54264;DHT22;40178;53.042;6.406;2022-11-14T04:21:21;5.90;99.90
54264;DHT22;40178;53.042;6.406;2022-11-14T04:23:47;5.90;99.90
54264;DHT22;40178;53.042;6.406;2022-11-14T04:26:12;5.90;99.90
54264;DHT22;40178;53.042;6.406;2022-11-14T04:28:38;5.90;99.90
54264;DHT22;40178;53.042;6.406;2022-11-14T04:31:03;5.90;99.90
54264;DHT22;40178;53.042;6.406;2022-11-14T04:33:29;5.90;99.90
54264;DHT22;40178;53.042;6.406;2022-11-14T04:35:55;5.80;99.90
54264;DHT22;40178;53.042;6.406;2022-11-14T04:38:20;5.90;99.90
54264;DHT22;40178;53.042;6.406;2022-11-14T04:40:50;5.90;99.90
54264;DHT22;40178;53.042;6.406;2022-11-14T04:43:16;5.90;99.90
54264;DHT22;40178;53.042;6.406;2022-11-14T04:45:41;5.90;99.90
54264;DHT22;40178;53.042;6.406;2022-11-14T04:48:07;5.90;99.90
54264;DHT22;40178;53.042;6.406;2022-11-14T04:50:32;5.90;99.90
54264;DHT22;40178;53.042;6.406;2022-11-14T04:52:58;5.90;99.90
54264;DHT22;40178;53.042;6.406;2022-11-14T04:55:23;5.90;99.90
54264;DHT22;40178;53.042;6.406;2022-11-14T04:57:56;6.00;99.90
54264;DHT22;40178;53.042;6.406;2022-11-14T05:00:23;5.90;99.90
54264;DHT22;40178;53.042;6.406;2022-11-14T05:02:49;6.00;99.90
54264;DHT22;40178;53.042;6.406;2022-11-14T05:05:15;5.90;99.90
54264;DHT22;40178;53.042;6.406;2022-11-14T05:07:41;6.00;99.90
54264;DHT22;40178;53.042;6.406;2022-11-14T05:10:07;5.90;99.90
54264;DHT22;40178;53.042;6.406;2022-11-14T05:12:33;5.90;99.90
54264;DHT22;40178;53.042;6.406;2022-11-14T05:14:59;6.00;99.90
54264;DHT22;40178;53.042;6.406;2022-11-14T05:17:25;5.90;99.90
54264;DHT22;40178;53.042;6.406;2022-11-14T05:19:50;5.90;99.90
54264;DHT22;40178;53.042;6.406;2022-11-14T05:22:16;6.00;99.90
54264;DHT22;40178;53.042;6.406;2022-11-14T05:24:42;6.00;99.90
54264;DHT22;40178;53.042;6.406;2022-11-14T05:27:07;5.90;99.90
54264;DHT22;40178;53.042;6.406;2022-11-14T05:29:33;5.90;99.90
54264;DHT22;40178;53.042;6.406;2022-11-14T05:31:59;5.90;99.90
54264;DHT22;40178;53.042;6.406;2022-11-14T05:34:25;5.90;99.90
54264;DHT22;40178;53.042;6.406;2022-11-14T05:36:51;5.90;99.90
54264;DHT22;40178;53.042;6.406;2022-11-14T05:39:16;5.80;99.90
54264;DHT22;40178;53.042;6.406;2022-11-14T05:41:42;5.90;99.90
54264;DHT22;40178;53.042;6.406;2022-11-14T05:44:08;5.90;99.90
54264;DHT22;40178;53.042;6.406;2022-11-14T05:46:33;5.90;99.90
54264;DHT22;40178;53.042;6.406;2022-11-14T05:48:59;6.00;99.90
54264;DHT22;40178;53.042;6.406;2022-11-14T05:51:25;5.90;99.90
54264;DHT22;40178;53.042;6.406;2022-11-14T05:53:50;6.00;99.90
54264;DHT22;40178;53.042;6.406;2022-11-14T05:56:16;6.00;99.90
54264;DHT22;40178;53.042;6.406;2022-11-14T05:58:42;5.90;99.90
54264;DHT22;40178;53.042;6.406;2022-11-14T06:01:13;6.00;99.90
54264;DHT22;40178;53.042;6.406;2022-11-14T06:03:41;6.00;99.90
54264;DHT22;40178;53.042;6.406;2022-11-14T06:06:09;6.00;99.90
54264;DHT22;40178;53.042;6.406;2022-11-14T06:08:35;5.90;99.90
54264;DHT22;40178;53.042;6.406;2022-11-14T06:11:03;5.90;99.90
54264;DHT22;40178;53.042;6.406;2022-11-14T06:13:29;6.00;99.90
54264;DHT22;40178;53.042;6.406;2022-11-14T06:15:59;5.90;99.90
54264;DHT22;40178;53.042;6.406;2022-11-14T06:18:26;5.80;99.90
54264;DHT22;40178;53.042;6.406;2022-11-14T06:20:52;5.80;99.90
54264;DHT22;40178;53.042;6.406;2022-11-14T06:23:17;5.80;99.90
54264;DHT22;40178;53.042;6.406;2022-11-14T06:25:43;5.80;99.90
54264;DHT22;40178;53.042;6.406;2022-11-14T06:28:08;5.80;99.90
54264;DHT22;40178;53.042;6.406;2022-11-14T06:30:34;5.80;99.90
54264;DHT22;40178;53.042;6.406;2022-11-14T06:32:59;5.70;99.90
54264;DHT22;40178;53.042;6.406;2022-11-14T06:35:26;5.80;99.90
54264;DHT22;40178;53.042;6.406;2022-11-14T06:37:52;5.80;99.90
54264;DHT22;40178;53.042;6.406;2022-11-14T06:40:17;5.70;99.90
54264;DHT22;40178;53.042;6.406;2022-11-14T06:42:43;5.80;99.90
54264;DHT22;40178;53.042;6.406;2022-11-14T06:45:09;5.80;99.90
54264;DHT22;40178;53.042;6.406;2022-11-14T06:47:34;5.80;99.90
54264;DHT22;40178;53.042;6.406;2022-11-14T06:50:00;5.80;99.90
54264;DHT22;40178;53.042;6.406;2022-11-14T06:52:25;5.80;99.90
54264;DHT22;40178;53.042;6.406;2022-11-14T06:54:51;5.70;99.90
54264;DHT22;40178;53.042;6.406;2022-11-14T06:57:17;5.80;99.90
54264;DHT22;40178;53.042;6.406;2022-11-14T06:59:43;5.60;99.90
54264;DHT22;40178;53.042;6.406;2022-11-14T07:02:12;5.70;99.90
54264;DHT22;40178;53.042;6.406;2022-11-14T07:04:38;5.60;99.90
54264;DHT22;40178;53.042;6.406;2022-11-14T07:07:04;5.50;99.90
54264;DHT22;40178;53.042;6.406;2022-11-14T07:09:29;5.50;99.90
54264;DHT22;40178;53.042;6.406;2022-11-14T07:11:55;5.60;99.90
54264;DHT22;40178;53.042;6.406;2022-11-14T07:14:20;5.50;99.90
54264;DHT22;40178;53.042;6.406;2022-11-14T07:16:46;5.60;99.90
54264;DHT22;40178;53.042;6.406;2022-11-14T07:19:12;5.50;99.90
54264;DHT22;40178;53.042;6.406;2022-11-14T07:21:38;5.50;99.90
54264;DHT22;40178;53.042;6.406;2022-11-14T07:24:04;5.50;99.90
54264;DHT22;40178;53.042;6.406;2022-11-14T07:26:29;5.50;99.90
54264;DHT22;40178;53.042;6.406;2022-11-14T07:28:55;5.50;99.90
54264;DHT22;40178;53.042;6.406;2022-11-14T07:31:21;5.60;99.90
54264;DHT22;40178;53.042;6.406;2022-11-14T07:33:46;5.50;99.90
54264;DHT22;40178;53.042;6.406;2022-11-14T07:36:13;5.60;99.90
54264;DHT22;40178;53.042;6.406;2022-11-14T07:38:39;5.50;99.90
54264;DHT22;40178;53.042;6.406;2022-11-14T07:41:08;5.50;99.90
54264;DHT22;40178;53.042;6.406;2022-11-14T07:43:33;5.50;99.90
54264;DHT22;40178;53.042;6.406;2022-11-14T07:46:00;5.50;99.90
54264;DHT22;40178;53.042;6.406;2022-11-14T07:48:26;5.50;99.90
54264;DHT22;40178;53.042;6.406;2022-11-14T07:50:52;5.50;99.90
54264;DHT22;40178;53.042;6.406;2022-11-14T07:53:18;5.50;99.90
54264;DHT22;40178;53.042;6.406;2022-11-14T07:55:43;5.60;99.90
54264;DHT22;40178;53.042;6.406;2022-11-14T07:58:09;5.60;99.90
54264;DHT22;40178;53.042;6.406;2022-11-14T08:00:35;5.60;99.90
54264;DHT22;40178;53.042;6.406;2022-11-14T08:03:01;5.60;99.90
54264;DHT22;40178;53.042;6.406;2022-11-14T08:05:26;5.70;99.90
54264;DHT22;40178;53.042;6.406;2022-11-14T08:07:52;5.70;99.90
54264;DHT22;40178;53.042;6.406;2022-11-14T08:10:18;5.60;99.90
54264;DHT22;40178;53.042;6.406;2022-11-14T08:12:44;5.60;99.90
54264;DHT22;40178;53.042;6.406;2022-11-14T08:15:11;5.60;99.90
54264;DHT22;40178;53.042;6.406;2022-11-14T08:17:37;5.70;99.90
54264;DHT22;40178;53.042;6.406;2022-11-14T08:20:04;5.60;99.90
54264;DHT22;40178;53.042;6.406;2022-11-14T08:22:30;5.70;99.90
54264;DHT22;40178;53.042;6.406;2022-11-14T08:24:56;5.70;99.90
54264;DHT22;40178;53.042;6.406;2022-11-14T08:27:23;5.70;99.90
54264;DHT22;40178;53.042;6.406;2022-11-14T08:29:48;5.80;99.90
54264;DHT22;40178;53.042;6.406;2022-11-14T08:32:16;5.80;99.90
54264;DHT22;40178;53.042;6.406;2022-11-14T08:34:41;5.80;99.90
54264;DHT22;40178;53.042;6.406;2022-11-14T08:37:07;5.90;99.90
54264;DHT22;40178;53.042;6.406;2022-11-14T08:39:32;6.00;99.90
54264;DHT22;40178;53.042;6.406;2022-11-14T08:41:58;6.00;99.90
54264;DHT22;40178;53.042;6.406;2022-11-14T08:44:23;5.90;99.90
54264;DHT22;40178;53.042;6.406;2022-11-14T08:46:49;6.00;99.90
54264;DHT22;40178;53.042;6.406;2022-11-14T08:49:15;6.00;99.90
54264;DHT22;40178;53.042;6.406;2022-11-14T08:51:41;5.90;99.90
54264;DHT22;40178;53.042;6.406;2022-11-14T08:54:06;6.00;99.90
54264;DHT22;40178;53.042;6.406;2022-11-14T08:56:32;6.00;99.90
54264;DHT22;40178;53.042;6.406;2022-11-14T08:58:57;6.10;99.90
54264;DHT22;40178;53.042;6.406;2022-11-14T09:01:24;6.20;99.90
54264;DHT22;40178;53.042;6.406;2022-11-14T09:03:49;6.20;99.90
54264;DHT22;40178;53.042;6.406;2022-11-14T09:06:15;6.20;99.90
54264;DHT22;40178;53.042;6.406;2022-11-14T09:08:40;6.20;99.90
54264;DHT22;40178;53.042;6.406;2022-11-14T09:11:06;6.20;99.90
54264;DHT22;40178;53.042;6.406;2022-11-14T09:13:32;6.10;99.90
54264;DHT22;40178;53.042;6.406;2022-11-14T09:15:58;6.20;99.90
54264;DHT22;40178;53.042;6.406;2022-11-14T09:18:24;6.20;99.90
54264;DHT22;40178;53.042;6.406;2022-11-14T09:20:49;6.20;99.90
54264;DHT22;40178;53.042;6.406;2022-11-14T09:23:15;6.30;99.90
54264;DHT22;40178;53.042;6.406;2022-11-14T09:25:40;6.40;99.90
54264;DHT22;40178;53.042;6.406;2022-11-14T09:28:06;6.40;99.90
54264;DHT22;40178;53.042;6.406;2022-11-14T09:30:33;6.40;99.90
54264;DHT22;40178;53.042;6.406;2022-11-14T09:33:00;6.40;99.90
54264;DHT22;40178;53.042;6.406;2022-11-14T09:35:27;6.40;99.90
54264;DHT22;40178;53.042;6.406;2022-11-14T09:38:07;6.40;99.90
54264;DHT22;40178;53.042;6.406;2022-11-14T09:41:09;6.50;99.90
54264;DHT22;40178;53.042;6.406;2022-11-14T09:46:43;6.50;99.90
54264;DHT22;40178;53.042;6.406;2022-11-14T09:49:30;6.50;99.90
54264;DHT22;40178;53.042;6.406;2022-11-14T09:52:44;6.60;99.90
54264;DHT22;40178;53.042;6.406;2022-11-14T09:55:12;6.60;99.90
54264;DHT22;40178;53.042;6.406;2022-11-14T09:57:42;6.70;99.90
54264;DHT22;40178;53.042;6.406;2022-11-14T10:00:20;6.70;99.90
54264;DHT22;40178;53.042;6.406;2022-11-14T10:03:02;6.70;99.90
54264;DHT22;40178;53.042;6.406;2022-11-14T10:11:06;6.80;99.90
54264;DHT22;40178;53.042;6.406;2022-11-14T10:22:10;7.00;99.90
54264;DHT22;40178;53.042;6.406;2022-11-14T10:27:35;7.10;99.90
54264;DHT22;40178;53.042;6.406;2022-11-14T10:30:15;7.10;99.90
54264;DHT22;40178;53.042;6.406;2022-11-14T10:32:44;7.10;99.90
54264;DHT22;40178;53.042;6.406;2022-11-14T10:35:17;7.00;99.90
54264;DHT22;40178;53.042;6.406;2022-11-14T10:38:04;7.10;99.90
54264;DHT22;40178;53.042;6.406;2022-11-14T10:40:50;7.20;99.90
54264;DHT22;40178;53.042;6.406;2022-11-14T10:43:25;7.10;99.90
54264;DHT22;40178;53.042;6.406;2022-11-14T10:45:53;7.10;99.90
54264;DHT22;40178;53.042;6.406;2022-11-14T10:48:37;7.10;99.90
54264;DHT22;40178;53.042;6.406;2022-11-14T10:56:14;7.10;99.90
54264;DHT22;40178;53.042;6.406;2022-11-14T10:58:41;7.10;99.90
54264;DHT22;40178;53.042;6.406;2022-11-14T11:04:36;7.30;99.90
54264;DHT22;40178;53.042;6.406;2022-11-14T11:09:36;7.30;99.90
54264;DHT22;40178;53.042;6.406;2022-11-14T11:16:01;7.30;99.90
54264;DHT22;40178;53.042;6.406;2022-11-14T11:18:22;7.40;99.90
54264;DHT22;40178;53.042;6.406;2022-11-14T11:21:10;7.40;99.90
54264;DHT22;40178;53.042;6.406;2022-11-14T11:23:54;7.50;99.90
54264;DHT22;40178;53.042;6.406;2022-11-14T11:26:29;7.40;99.90
54264;DHT22;40178;53.042;6.406;2022-11-14T11:29:13;7.40;99.90
54264;DHT22;40178;53.042;6.406;2022-11-14T11:31:51;7.40;99.90
54264;DHT22;40178;53.042;6.406;2022-11-14T11:34:22;7.40;99.90
54264;DHT22;40178;53.042;6.406;2022-11-14T11:37:08;7.40;99.90
54264;DHT22;40178;53.042;6.406;2022-11-14T11:39:54;7.40;99.90
54264;DHT22;40178;53.042;6.406;2022-11-14T11:42:35;7.40;99.90
54264;DHT22;40178;53.042;6.406;2022-11-14T11:45:07;7.40;99.90
54264;DHT22;40178;53.042;6.406;2022-11-14T11:47:34;7.50;99.90
54264;DHT22;40178;53.042;6.406;2022-11-14T11:50:01;7.50;99.90
54264;DHT22;40178;53.042;6.406;2022-11-14T11:52:38;7.50;99.90
54264;DHT22;40178;53.042;6.406;2022-11-14T11:57:44;7.50;99.90
54264;DHT22;40178;53.042;6.406;2022-11-14T12:00:19;7.50;99.90
54264;DHT22;40178;53.042;6.406;2022-11-14T12:02:47;7.50;99.90
54264;DHT22;40178;53.042;6.406;2022-11-14T12:05:16;7.50;99.90
54264;DHT22;40178;53.042;6.406;2022-11-14T12:08:07;7.60;99.90
54264;DHT22;40178;53.042;6.406;2022-11-14T12:10:38;7.60;99.90
54264;DHT22;40178;53.042;6.406;2022-11-14T12:13:21;7.50;99.90
54264;DHT22;40178;53.042;6.406;2022-11-14T12:16:31;7.60;99.90
54264;DHT22;40178;53.042;6.406;2022-11-14T12:21:39;7.60;99.90
54264;DHT22;40178;53.042;6.406;2022-11-14T12:32:43;7.70;99.90
54264;DHT22;40178;53.042;6.406;2022-11-14T12:37:55;7.70;99.90
54264;DHT22;40178;53.042;6.406;2022-11-14T12:40:32;7.80;99.90
54264;DHT22;40178;53.042;6.406;2022-11-14T12:42:59;7.80;99.90
54264;DHT22;40178;53.042;6.406;2022-11-14T12:50:44;7.80;99.90
54264;DHT22;40178;53.042;6.406;2022-11-14T13:01:36;7.80;99.90
54264;DHT22;40178;53.042;6.406;2022-11-14T13:04:31;7.80;99.90
54264;DHT22;40178;53.042;6.406;2022-11-14T13:07:27;7.80;99.90
54264;DHT22;40178;53.042;6.406;2022-11-14T13:10:12;7.80;99.90
54264;DHT22;40178;53.042;6.406;2022-11-14T13:12:41;7.90;99.90
54264;DHT22;40178;53.042;6.406;2022-11-14T13:15:46;7.90;99.90
54264;DHT22;40178;53.042;6.406;2022-11-14T13:18:32;7.90;99.90
54264;DHT22;40178;53.042;6.406;2022-11-14T13:21:23;7.90;99.90
54264;DHT22;40178;53.042;6.406;2022-11-14T13:24:08;7.90;99.90
54264;DHT22;40178;53.042;6.406;2022-11-14T13:26:39;7.90;99.90
54264;DHT22;40178;53.042;6.406;2022-11-14T13:29:05;7.90;99.90
54264;DHT22;40178;53.042;6.406;2022-11-14T13:34:23;8.00;99.90
54264;DHT22;40178;53.042;6.406;2022-11-14T13:36:57;8.00;99.90
54264;DHT22;40178;53.042;6.406;2022-11-14T13:42:28;8.00;99.90
54264;DHT22;40178;53.042;6.406;2022-11-14T13:50:32;8.10;99.90
54264;DHT22;40178;53.042;6.406;2022-11-14T13:53:01;8.10;99.90
54264;DHT22;40178;53.042;6.406;2022-11-14T13:55:59;8.10;99.90
54264;DHT22;40178;53.042;6.406;2022-11-14T13:58:29;8.10;99.90
54264;DHT22;40178;53.042;6.406;2022-11-14T14:06:35;8.10;99.90
54264;DHT22;40178;53.042;6.406;2022-11-14T14:22:51;8.00;99.90
54264;DHT22;40178;53.042;6.406;2022-11-14T14:25:39;8.00;99.90
54264;DHT22;40178;53.042;6.406;2022-11-14T14:31:03;8.00;99.90
54264;DHT22;40178;53.042;6.406;2022-11-14T14:33:47;8.00;99.90
54264;DHT22;40178;53.042;6.406;2022-11-14T14:36:21;7.90;99.90
54264;DHT22;40178;53.042;6.406;2022-11-14T14:38:48;7.90;99.90
54264;DHT22;40178;53.042;6.406;2022-11-14T14:41:16;7.90;99.90
54264;DHT22;40178;53.042;6.406;2022-11-14T14:43:49;7.90;99.90
54264;DHT22;40178;53.042;6.406;2022-11-14T14:46:28;7.80;99.90
54264;DHT22;40178;53.042;6.406;2022-11-14T14:48:54;7.80;99.90
54264;DHT22;40178;53.042;6.406;2022-11-14T14:51:32;7.60;99.90
54264;DHT22;40178;53.042;6.406;2022-11-14T14:53:59;7.60;99.90
54264;DHT22;40178;53.042;6.406;2022-11-14T14:56:25;7.60;99.90
54264;DHT22;40178;53.042;6.406;2022-11-14T14:58:51;7.60;99.90
54264;DHT22;40178;53.042;6.406;2022-11-14T15:01:27;7.60;99.90
54264;DHT22;40178;53.042;6.406;2022-11-14T15:04:01;7.50;99.90
54264;DHT22;40178;53.042;6.406;2022-11-14T15:06:29;7.50;99.90
54264;DHT22;40178;53.042;6.406;2022-11-14T15:09:19;7.50;99.90
54264;DHT22;40178;53.042;6.406;2022-11-14T15:11:46;7.50;99.90
54264;DHT22;40178;53.042;6.406;2022-11-14T15:14:23;7.40;99.90
54264;DHT22;40178;53.042;6.406;2022-11-14T15:16:50;7.40;99.90
54264;DHT22;40178;53.042;6.406;2022-11-14T15:19:19;7.50;99.90
54264;DHT22;40178;53.042;6.406;2022-11-14T15:22:04;7.50;99.90
54264;DHT22;40178;53.042;6.406;2022-11-14T15:24:30;7.60;99.90
54264;DHT22;40178;53.042;6.406;2022-11-14T15:26:56;7.60;99.90
54264;DHT22;40178;53.042;6.406;2022-11-14T15:29:24;7.60;99.90
54264;DHT22;40178;53.042;6.406;2022-11-14T15:31:58;7.60;99.90
54264;DHT22;40178;53.042;6.406;2022-11-14T15:34:33;7.70;99.90
54264;DHT22;40178;53.042;6.406;2022-11-14T15:39:44;7.80;99.90
54264;DHT22;40178;53.042;6.406;2022-11-14T15:44:41;7.80;99.90
54264;DHT22;40178;53.042;6.406;2022-11-14T15:47:23;7.80;99.90
54264;DHT22;40178;53.042;6.406;2022-11-14T15:52:42;7.90;99.90
54264;DHT22;40178;53.042;6.406;2022-11-14T15:55:16;7.90;99.90
54264;DHT22;40178;53.042;6.406;2022-11-14T15:57:42;7.90;99.90
54264;DHT22;40178;53.042;6.406;2022-11-14T16:00:11;7.90;99.90
54264;DHT22;40178;53.042;6.406;2022-11-14T16:02:51;7.90;99.90
54264;DHT22;40178;53.042;6.406;2022-11-14T16:05:23;8.00;99.90
54264;DHT22;40178;53.042;6.406;2022-11-14T16:07:50;7.90;99.90
54264;DHT22;40178;53.042;6.406;2022-11-14T16:10:26;7.90;99.90
54264;DHT22;40178;53.042;6.406;2022-11-14T16:12:52;7.90;99.90
54264;DHT22;40178;53.042;6.406;2022-11-14T16:15:19;8.00;99.90
54264;DHT22;40178;53.042;6.406;2022-11-14T16:17:46;8.00;99.90
54264;DHT22;40178;53.042;6.406;2022-11-14T16:20:15;8.00;99.90
54264;DHT22;40178;53.042;6.406;2022-11-14T16:22:46;8.00;99.90
54264;DHT22;40178;53.042;6.406;2022-11-14T16:25:26;8.00;99.90
54264;DHT22;40178;53.042;6.406;2022-11-14T16:27:52;8.00;99.90
54264;DHT22;40178;53.042;6.406;2022-11-14T16:30:20;8.00;99.90
54264;DHT22;40178;53.042;6.406;2022-11-14T16:32:47;8.00;99.90
54264;DHT22;40178;53.042;6.406;2022-11-14T16:35:18;8.00;99.90
54264;DHT22;40178;53.042;6.406;2022-11-14T16:37:44;8.00;99.90
54264;DHT22;40178;53.042;6.406;2022-11-14T16:40:22;8.00;99.90
54264;DHT22;40178;53.042;6.406;2022-11-14T16:42:48;8.00;99.90
54264;DHT22;40178;53.042;6.406;2022-11-14T16:45:17;8.00;99.90
54264;DHT22;40178;53.042;6.406;2022-11-14T16:47:45;8.00;99.90
54264;DHT22;40178;53.042;6.406;2022-11-14T16:50:10;8.00;99.90
54264;DHT22;40178;53.042;6.406;2022-11-14T16:52:37;7.90;99.90
54264;DHT22;40178;53.042;6.406;2022-11-14T16:55:04;7.90;99.90
54264;DHT22;40178;53.042;6.406;2022-11-14T16:57:30;8.00;99.90
54264;DHT22;40178;53.042;6.406;2022-11-14T16:59:55;7.90;99.90
54264;DHT22;40178;53.042;6.406;2022-11-14T17:02:23;8.00;99.90
54264;DHT22;40178;53.042;6.406;2022-11-14T17:04:49;7.90;99.90
54264;DHT22;40178;53.042;6.406;2022-11-14T17:07:14;7.90;99.90
54264;DHT22;40178;53.042;6.406;2022-11-14T17:09:40;7.90;99.90
54264;DHT22;40178;53.042;6.406;2022-11-14T17:12:06;7.90;99.90
54264;DHT22;40178;53.042;6.406;2022-11-14T17:14:32;7.90;99.90
54264;DHT22;40178;53.042;6.406;2022-11-14T17:16:58;7.90;99.90
54264;DHT22;40178;53.042;6.406;2022-11-14T17:19:23;7.90;99.90
54264;DHT22;40178;53.042;6.406;2022-11-14T17:21:50;7.90;99.90
54264;DHT22;40178;53.042;6.406;2022-11-14T17:24:15;7.90;99.90
54264;DHT22;40178;53.042;6.406;2022-11-14T17:26:41;7.80;99.90
54264;DHT22;40178;53.042;6.406;2022-11-14T17:29:07;7.80;99.90
54264;DHT22;40178;53.042;6.406;2022-11-14T17:31:32;7.80;99.90
54264;DHT22;40178;53.042;6.406;2022-11-14T17:33:58;7.80;99.90
54264;DHT22;40178;53.042;6.406;2022-11-14T17:36:28;7.70;99.90
54264;DHT22;40178;53.042;6.406;2022-11-14T17:38:55;7.70;99.90
54264;DHT22;40178;53.042;6.406;2022-11-14T17:41:22;7.70;99.90
54264;DHT22;40178;53.042;6.406;2022-11-14T17:43:51;7.70;99.90